sensor_id;sensor_type;location;lat;lon;timestamp;P1;durP1;ratioP1;P2;durP2;ratioP2
16967;SDS011;8600;54.338;10.128;2022-08-11T00:01:09;8.65;;;2.63;;
16967;SDS011;8600;54.338;10.128;2022-08-11T00:03:42;7.88;;;2.67;;
16967;SDS011;8600;54.338;10.128;2022-08-11T00:06:11;7.15;;;2.70;;
16967;SDS011;8600;54.338;10.128;2022-08-11T00:08:40;8.38;;;3.20;;
16967;SDS011;8600;54.338;10.128;2022-08-11T00:11:09;6.85;;;2.80;;
16967;SDS011;8600;54.338;10.128;2022-08-11T00:13:38;9.38;;;3.00;;
16967;SDS011;8600;54.338;10.128;2022-08-11T00:16:14;6.28;;;2.60;;
16967;SDS011;8600;54.338;10.128;2022-08-11T00:18:43;5.75;;;3.03;;
16967;SDS011;8600;54.338;10.128;2022-08-11T00:21:13;7.65;;;2.92;;
16967;SDS011;8600;54.338;10.128;2022-08-11T00:23:42;9.25;;;2.92;;
16967;SDS011;8600;54.338;10.128;2022-08-11T00:26:11;5.47;;;2.60;;
16967;SDS011;8600;54.338;10.128;2022-08-11T00:28:39;7.18;;;2.75;;
16967;SDS011;8600;54.338;10.128;2022-08-11T00:31:07;10.15;;;2.60;;
16967;SDS011;8600;54.338;10.128;2022-08-11T00:33:38;5.25;;;2.55;;
16967;SDS011;8600;54.338;10.128;2022-08-11T00:36:07;4.93;;;2.60;;
16967;SDS011;8600;54.338;10.128;2022-08-11T00:38:36;4.93;;;2.75;;
16967;SDS011;8600;54.338;10.128;2022-08-11T00:41:10;11.52;;;2.90;;
16967;SDS011;8600;54.338;10.128;2022-08-11T00:43:58;6.40;;;2.72;;
16967;SDS011;8600;54.338;10.128;2022-08-11T00:46:41;11.25;;;2.88;;
16967;SDS011;8600;54.338;10.128;2022-08-11T00:49:27;8.43;;;2.92;;
16967;SDS011;8600;54.338;10.128;2022-08-11T00:52:07;4.53;;;2.72;;
16967;SDS011;8600;54.338;10.128;2022-08-11T00:55:02;6.25;;;3.10;;
16967;SDS011;8600;54.338;10.128;2022-08-11T00:58:09;11.50;;;3.50;;
16967;SDS011;8600;54.338;10.128;2022-08-11T01:03:52;7.93;;;3.33;;
16967;SDS011;8600;54.338;10.128;2022-08-11T01:09:58;12.88;;;3.30;;
16967;SDS011;8600;54.338;10.128;2022-08-11T01:12:48;8.25;;;3.63;;
16967;SDS011;8600;54.338;10.128;2022-08-11T01:15:35;8.73;;;3.08;;
16967;SDS011;8600;54.338;10.128;2022-08-11T01:18:46;10.45;;;3.70;;
16967;SDS011;8600;54.338;10.128;2022-08-11T01:24:43;9.75;;;3.45;;
16967;SDS011;8600;54.338;10.128;2022-08-11T01:30:26;9.60;;;3.50;;
16967;SDS011;8600;54.338;10.128;2022-08-11T01:45:45;6.85;;;3.97;;
16967;SDS011;8600;54.338;10.128;2022-08-11T01:48:19;8.63;;;3.70;;
16967;SDS011;8600;54.338;10.128;2022-08-11T01:51:01;8.93;;;3.72;;
16967;SDS011;8600;54.338;10.128;2022-08-11T01:54:02;7.35;;;3.63;;
16967;SDS011;8600;54.338;10.128;2022-08-11T01:56:37;9.20;;;3.53;;
16967;SDS011;8600;54.338;10.128;2022-08-11T01:59:22;6.63;;;3.33;;
16967;SDS011;8600;54.338;10.128;2022-08-11T02:01:59;7.40;;;3.30;;
16967;SDS011;8600;54.338;10.128;2022-08-11T02:04:46;8.23;;;3.42;;
16967;SDS011;8600;54.338;10.128;2022-08-11T02:07:23;6.60;;;2.97;;
16967;SDS011;8600;54.338;10.128;2022-08-11T02:10:07;9.10;;;3.28;;
16967;SDS011;8600;54.338;10.128;2022-08-11T02:13:04;6.70;;;2.92;;
16967;SDS011;8600;54.338;10.128;2022-08-11T02:15:41;6.28;;;2.95;;
16967;SDS011;8600;54.338;10.128;2022-08-11T02:18:12;8.05;;;3.13;;
16967;SDS011;8600;54.338;10.128;2022-08-11T02:20:47;6.47;;;3.30;;
16967;SDS011;8600;54.338;10.128;2022-08-11T02:23:38;7.68;;;2.90;;
16967;SDS011;8600;54.338;10.128;2022-08-11T02:26:19;8.38;;;3.10;;
16967;SDS011;8600;54.338;10.128;2022-08-11T02:28:52;5.78;;;3.10;;
16967;SDS011;8600;54.338;10.128;2022-08-11T02:31:26;6.60;;;3.28;;
16967;SDS011;8600;54.338;10.128;2022-08-11T02:34:24;6.05;;;3.17;;
16967;SDS011;8600;54.338;10.128;2022-08-11T02:37:06;6.57;;;3.03;;
16967;SDS011;8600;54.338;10.128;2022-08-11T02:39:44;6.97;;;3.05;;
16967;SDS011;8600;54.338;10.128;2022-08-11T02:42:22;4.82;;;3.25;;
16967;SDS011;8600;54.338;10.128;2022-08-11T02:45:03;7.50;;;3.15;;
16967;SDS011;8600;54.338;10.128;2022-08-11T02:47:50;7.88;;;3.40;;
16967;SDS011;8600;54.338;10.128;2022-08-11T02:50:42;7.43;;;3.42;;
16967;SDS011;8600;54.338;10.128;2022-08-11T02:53:19;8.38;;;3.42;;
16967;SDS011;8600;54.338;10.128;2022-08-11T02:56:05;6.57;;;3.03;;
16967;SDS011;8600;54.338;10.128;2022-08-11T02:58:43;6.18;;;2.97;;
16967;SDS011;8600;54.338;10.128;2022-08-11T03:01:39;6.95;;;3.10;;
16967;SDS011;8600;54.338;10.128;2022-08-11T03:04:16;9.38;;;3.53;;
16967;SDS011;8600;54.338;10.128;2022-08-11T03:06:48;8.55;;;3.30;;
16967;SDS011;8600;54.338;10.128;2022-08-11T03:09:23;5.30;;;3.10;;
16967;SDS011;8600;54.338;10.128;2022-08-11T03:11:56;6.07;;;3.33;;
16967;SDS011;8600;54.338;10.128;2022-08-11T03:14:53;7.90;;;3.40;;
16967;SDS011;8600;54.338;10.128;2022-08-11T03:17:46;7.13;;;3.40;;
16967;SDS011;8600;54.338;10.128;2022-08-11T03:20:29;10.10;;;3.53;;
16967;SDS011;8600;54.338;10.128;2022-08-11T03:23:03;7.93;;;3.45;;
16967;SDS011;8600;54.338;10.128;2022-08-11T03:25:37;4.93;;;3.40;;
16967;SDS011;8600;54.338;10.128;2022-08-11T03:28:19;8.75;;;3.50;;
16967;SDS011;8600;54.338;10.128;2022-08-11T03:31:04;8.95;;;3.92;;
16967;SDS011;8600;54.338;10.128;2022-08-11T03:33:37;7.03;;;3.60;;
16967;SDS011;8600;54.338;10.128;2022-08-11T03:39:28;7.90;;;3.72;;
16967;SDS011;8600;54.338;10.128;2022-08-11T03:42:09;6.53;;;3.97;;
16967;SDS011;8600;54.338;10.128;2022-08-11T03:44:49;6.38;;;3.60;;
16967;SDS011;8600;54.338;10.128;2022-08-11T03:50:46;6.55;;;3.90;;
16967;SDS011;8600;54.338;10.128;2022-08-11T03:53:22;8.38;;;4.13;;
16967;SDS011;8600;54.338;10.128;2022-08-11T04:03:00;8.68;;;4.03;;
16967;SDS011;8600;54.338;10.128;2022-08-11T04:08:54;9.23;;;4.57;;
16967;SDS011;8600;54.338;10.128;2022-08-11T04:11:47;10.00;;;4.40;;
16967;SDS011;8600;54.338;10.128;2022-08-11T04:14:46;11.07;;;4.50;;
16967;SDS011;8600;54.338;10.128;2022-08-11T04:17:55;10.02;;;4.60;;
16967;SDS011;8600;54.338;10.128;2022-08-11T04:20:48;11.10;;;4.55;;
16967;SDS011;8600;54.338;10.128;2022-08-11T04:26:20;11.32;;;4.70;;
16967;SDS011;8600;54.338;10.128;2022-08-11T04:29:14;7.75;;;4.45;;
16967;SDS011;8600;54.338;10.128;2022-08-11T04:31:59;9.02;;;4.53;;
16967;SDS011;8600;54.338;10.128;2022-08-11T04:34:40;6.63;;;4.15;;
16967;SDS011;8600;54.338;10.128;2022-08-11T04:37:18;7.28;;;3.60;;
16967;SDS011;8600;54.338;10.128;2022-08-11T04:49:16;8.93;;;4.22;;
16967;SDS011;8600;54.338;10.128;2022-08-11T04:52:54;9.48;;;4.38;;
16967;SDS011;8600;54.338;10.128;2022-08-11T04:56:02;7.63;;;4.00;;
16967;SDS011;8600;54.338;10.128;2022-08-11T04:59:07;9.48;;;3.65;;
16967;SDS011;8600;54.338;10.128;2022-08-11T05:02:29;5.57;;;3.28;;
16967;SDS011;8600;54.338;10.128;2022-08-11T05:05:18;8.57;;;3.72;;
16967;SDS011;8600;54.338;10.128;2022-08-11T05:11:24;5.97;;;3.15;;
16967;SDS011;8600;54.338;10.128;2022-08-11T05:14:05;6.53;;;3.13;;
16967;SDS011;8600;54.338;10.128;2022-08-11T05:17:21;5.38;;;3.05;;
16967;SDS011;8600;54.338;10.128;2022-08-11T05:20:15;7.20;;;3.22;;
16967;SDS011;8600;54.338;10.128;2022-08-11T05:23:00;5.35;;;2.85;;
16967;SDS011;8600;54.338;10.128;2022-08-11T05:25:48;4.82;;;2.78;;
16967;SDS011;8600;54.338;10.128;2022-08-11T05:28:37;5.82;;;2.90;;
16967;SDS011;8600;54.338;10.128;2022-08-11T05:31:30;7.50;;;2.78;;
16967;SDS011;8600;54.338;10.128;2022-08-11T05:34:16;8.50;;;2.80;;
16967;SDS011;8600;54.338;10.128;2022-08-11T05:37:07;6.75;;;2.72;;
16967;SDS011;8600;54.338;10.128;2022-08-11T05:39:40;8.02;;;2.50;;
16967;SDS011;8600;54.338;10.128;2022-08-11T05:42:28;5.95;;;2.25;;
16967;SDS011;8600;54.338;10.128;2022-08-11T05:45:16;6.13;;;2.70;;
16967;SDS011;8600;54.338;10.128;2022-08-11T05:48:01;5.95;;;2.58;;
16967;SDS011;8600;54.338;10.128;2022-08-11T05:50:50;10.25;;;2.60;;
16967;SDS011;8600;54.338;10.128;2022-08-11T05:53:43;8.95;;;2.42;;
16967;SDS011;8600;54.338;10.128;2022-08-11T05:56:31;5.53;;;2.38;;
16967;SDS011;8600;54.338;10.128;2022-08-11T05:58:59;5.38;;;2.00;;
16967;SDS011;8600;54.338;10.128;2022-08-11T06:01:27;4.80;;;1.98;;
16967;SDS011;8600;54.338;10.128;2022-08-11T06:03:57;9.60;;;2.38;;
16967;SDS011;8600;54.338;10.128;2022-08-11T06:06:45;5.15;;;2.10;;
16967;SDS011;8600;54.338;10.128;2022-08-11T06:09:27;3.90;;;1.90;;
16967;SDS011;8600;54.338;10.128;2022-08-11T06:11:58;5.30;;;2.20;;
16967;SDS011;8600;54.338;10.128;2022-08-11T06:14:27;8.10;;;1.95;;
16967;SDS011;8600;54.338;10.128;2022-08-11T06:16:56;3.72;;;1.92;;
16967;SDS011;8600;54.338;10.128;2022-08-11T06:19:31;3.83;;;1.70;;
16967;SDS011;8600;54.338;10.128;2022-08-11T06:22:00;4.95;;;1.90;;
16967;SDS011;8600;54.338;10.128;2022-08-11T06:24:30;4.45;;;1.80;;
16967;SDS011;8600;54.338;10.128;2022-08-11T06:26:59;6.13;;;3.13;;
16967;SDS011;8600;54.338;10.128;2022-08-11T06:29:27;4.88;;;1.88;;
16967;SDS011;8600;54.338;10.128;2022-08-11T06:31:57;6.18;;;1.70;;
16967;SDS011;8600;54.338;10.128;2022-08-11T06:34:34;3.50;;;2.00;;
16967;SDS011;8600;54.338;10.128;2022-08-11T06:40:02;5.57;;;1.73;;
16967;SDS011;8600;54.338;10.128;2022-08-11T06:42:35;7.53;;;2.10;;
16967;SDS011;8600;54.338;10.128;2022-08-11T06:45:12;6.80;;;2.10;;
16967;SDS011;8600;54.338;10.128;2022-08-11T06:47:49;5.38;;;1.92;;
16967;SDS011;8600;54.338;10.128;2022-08-11T06:50:18;3.72;;;1.75;;
16967;SDS011;8600;54.338;10.128;2022-08-11T06:53:05;6.40;;;1.60;;
16967;SDS011;8600;54.338;10.128;2022-08-11T06:55:40;9.32;;;2.67;;
16967;SDS011;8600;54.338;10.128;2022-08-11T06:58:28;5.60;;;1.80;;
16967;SDS011;8600;54.338;10.128;2022-08-11T07:01:18;6.55;;;1.95;;
16967;SDS011;8600;54.338;10.128;2022-08-11T07:03:55;6.60;;;2.13;;
16967;SDS011;8600;54.338;10.128;2022-08-11T07:06:32;4.85;;;1.85;;
16967;SDS011;8600;54.338;10.128;2022-08-11T07:09:47;9.90;;;2.00;;
16967;SDS011;8600;54.338;10.128;2022-08-11T07:12:53;6.57;;;1.90;;
16967;SDS011;8600;54.338;10.128;2022-08-11T07:15:41;6.13;;;1.90;;
16967;SDS011;8600;54.338;10.128;2022-08-11T07:18:16;3.33;;;1.98;;
16967;SDS011;8600;54.338;10.128;2022-08-11T07:24:08;6.53;;;2.10;;
16967;SDS011;8600;54.338;10.128;2022-08-11T07:26:58;5.95;;;2.30;;
16967;SDS011;8600;54.338;10.128;2022-08-11T07:29:45;5.65;;;2.10;;
16967;SDS011;8600;54.338;10.128;2022-08-11T07:32:19;5.35;;;2.00;;
16967;SDS011;8600;54.338;10.128;2022-08-11T07:34:52;7.88;;;2.13;;
16967;SDS011;8600;54.338;10.128;2022-08-11T07:39:54;6.32;;;2.20;;
16967;SDS011;8600;54.338;10.128;2022-08-11T07:42:26;5.30;;;2.25;;
16967;SDS011;8600;54.338;10.128;2022-08-11T07:44:56;5.00;;;2.08;;
16967;SDS011;8600;54.338;10.128;2022-08-11T07:47:43;6.18;;;2.10;;
16967;SDS011;8600;54.338;10.128;2022-08-11T07:50:29;7.75;;;2.40;;
16967;SDS011;8600;54.338;10.128;2022-08-11T07:53:15;4.22;;;1.92;;
16967;SDS011;8600;54.338;10.128;2022-08-11T07:55:43;7.95;;;2.33;;
16967;SDS011;8600;54.338;10.128;2022-08-11T07:58:13;8.40;;;2.17;;
16967;SDS011;8600;54.338;10.128;2022-08-11T08:00:59;5.85;;;2.30;;
16967;SDS011;8600;54.338;10.128;2022-08-11T08:03:44;5.53;;;1.90;;
16967;SDS011;8600;54.338;10.128;2022-08-11T08:06:31;8.07;;;2.28;;
16967;SDS011;8600;54.338;10.128;2022-08-11T08:09:17;3.47;;;2.03;;
16967;SDS011;8600;54.338;10.128;2022-08-11T08:12:04;5.80;;;2.20;;
16967;SDS011;8600;54.338;10.128;2022-08-11T08:14:50;5.55;;;1.80;;
16967;SDS011;8600;54.338;10.128;2022-08-11T08:17:41;4.85;;;1.90;;
16967;SDS011;8600;54.338;10.128;2022-08-11T08:20:22;5.45;;;2.10;;
16967;SDS011;8600;54.338;10.128;2022-08-11T08:22:51;6.82;;;2.10;;
16967;SDS011;8600;54.338;10.128;2022-08-11T08:25:22;7.35;;;1.88;;
16967;SDS011;8600;54.338;10.128;2022-08-11T08:27:50;5.13;;;1.95;;
16967;SDS011;8600;54.338;10.128;2022-08-11T08:30:18;3.42;;;1.70;;
16967;SDS011;8600;54.338;10.128;2022-08-11T08:33:04;6.55;;;1.92;;
16967;SDS011;8600;54.338;10.128;2022-08-11T08:35:31;7.70;;;1.90;;
16967;SDS011;8600;54.338;10.128;2022-08-11T08:38:00;6.53;;;2.00;;
16967;SDS011;8600;54.338;10.128;2022-08-11T08:40:28;4.10;;;1.80;;
16967;SDS011;8600;54.338;10.128;2022-08-11T08:42:57;7.80;;;2.17;;
16967;SDS011;8600;54.338;10.128;2022-08-11T08:45:28;2.95;;;1.50;;
16967;SDS011;8600;54.338;10.128;2022-08-11T08:48:02;6.20;;;1.48;;
16967;SDS011;8600;54.338;10.128;2022-08-11T08:50:34;4.55;;;1.50;;
16967;SDS011;8600;54.338;10.128;2022-08-11T08:53:25;6.78;;;1.67;;
16967;SDS011;8600;54.338;10.128;2022-08-11T08:55:57;3.40;;;1.70;;
16967;SDS011;8600;54.338;10.128;2022-08-11T08:58:26;3.22;;;1.70;;
16967;SDS011;8600;54.338;10.128;2022-08-11T09:00:55;4.85;;;1.80;;
16967;SDS011;8600;54.338;10.128;2022-08-11T09:03:24;4.78;;;1.90;;
16967;SDS011;8600;54.338;10.128;2022-08-11T09:05:54;4.68;;;1.70;;
16967;SDS011;8600;54.338;10.128;2022-08-11T09:08:22;4.53;;;1.80;;
16967;SDS011;8600;54.338;10.128;2022-08-11T09:10:51;3.80;;;1.55;;
16967;SDS011;8600;54.338;10.128;2022-08-11T09:16:06;5.85;;;1.75;;
16967;SDS011;8600;54.338;10.128;2022-08-11T09:18:35;5.32;;;1.95;;
16967;SDS011;8600;54.338;10.128;2022-08-11T09:21:04;5.13;;;1.70;;
16967;SDS011;8600;54.338;10.128;2022-08-11T09:23:32;4.78;;;1.60;;
16967;SDS011;8600;54.338;10.128;2022-08-11T09:26:18;6.35;;;1.95;;
16967;SDS011;8600;54.338;10.128;2022-08-11T09:29:03;5.25;;;2.00;;
16967;SDS011;8600;54.338;10.128;2022-08-11T09:31:30;4.65;;;1.83;;
16967;SDS011;8600;54.338;10.128;2022-08-11T09:33:58;5.25;;;1.70;;
16967;SDS011;8600;54.338;10.128;2022-08-11T09:36:28;7.53;;;1.90;;
16967;SDS011;8600;54.338;10.128;2022-08-11T09:39:13;4.82;;;1.75;;
16967;SDS011;8600;54.338;10.128;2022-08-11T09:41:59;3.83;;;1.63;;
16967;SDS011;8600;54.338;10.128;2022-08-11T09:44:27;4.95;;;1.80;;
16967;SDS011;8600;54.338;10.128;2022-08-11T09:47:14;5.95;;;1.58;;
16967;SDS011;8600;54.338;10.128;2022-08-11T09:49:45;4.35;;;1.67;;
16967;SDS011;8600;54.338;10.128;2022-08-11T09:52:14;5.65;;;1.80;;
16967;SDS011;8600;54.338;10.128;2022-08-11T09:54:43;6.43;;;1.75;;
16967;SDS011;8600;54.338;10.128;2022-08-11T09:57:12;4.43;;;1.70;;
16967;SDS011;8600;54.338;10.128;2022-08-11T09:59:57;6.68;;;1.90;;
16967;SDS011;8600;54.338;10.128;2022-08-11T10:02:25;6.90;;;1.70;;
16967;SDS011;8600;54.338;10.128;2022-08-11T10:04:55;3.47;;;1.45;;
16967;SDS011;8600;54.338;10.128;2022-08-11T10:07:45;3.78;;;1.63;;
16967;SDS011;8600;54.338;10.128;2022-08-11T10:10:15;6.75;;;1.80;;
16967;SDS011;8600;54.338;10.128;2022-08-11T10:12:47;4.68;;;1.92;;
16967;SDS011;8600;54.338;10.128;2022-08-11T10:15:17;4.93;;;1.80;;
16967;SDS011;8600;54.338;10.128;2022-08-11T10:17:59;6.68;;;1.85;;
16967;SDS011;8600;54.338;10.128;2022-08-11T10:20:47;4.82;;;1.60;;
16967;SDS011;8600;54.338;10.128;2022-08-11T10:23:19;5.68;;;1.70;;
16967;SDS011;8600;54.338;10.128;2022-08-11T10:26:05;4.65;;;1.60;;
16967;SDS011;8600;54.338;10.128;2022-08-11T10:28:51;3.92;;;1.83;;
16967;SDS011;8600;54.338;10.128;2022-08-11T10:31:20;5.03;;;1.48;;
16967;SDS011;8600;54.338;10.128;2022-08-11T10:34:05;4.88;;;1.60;;
16967;SDS011;8600;54.338;10.128;2022-08-11T10:36:34;7.57;;;1.50;;
16967;SDS011;8600;54.338;10.128;2022-08-11T10:39:09;4.78;;;1.70;;
16967;SDS011;8600;54.338;10.128;2022-08-11T10:44:26;5.72;;;1.70;;
16967;SDS011;8600;54.338;10.128;2022-08-11T10:46:54;4.72;;;1.52;;
16967;SDS011;8600;54.338;10.128;2022-08-11T10:49:38;2.55;;;1.30;;
16967;SDS011;8600;54.338;10.128;2022-08-11T10:52:06;7.05;;;1.60;;
16967;SDS011;8600;54.338;10.128;2022-08-11T10:54:52;4.40;;;1.30;;
16967;SDS011;8600;54.338;10.128;2022-08-11T10:57:36;4.32;;;1.50;;
16967;SDS011;8600;54.338;10.128;2022-08-11T11:00:21;4.80;;;1.35;;
16967;SDS011;8600;54.338;10.128;2022-08-11T11:02:48;4.05;;;1.45;;
16967;SDS011;8600;54.338;10.128;2022-08-11T11:05:19;3.55;;;1.40;;
16967;SDS011;8600;54.338;10.128;2022-08-11T11:07:51;5.32;;;1.50;;
16967;SDS011;8600;54.338;10.128;2022-08-11T11:10:25;6.15;;;1.50;;
16967;SDS011;8600;54.338;10.128;2022-08-11T11:12:53;7.97;;;1.55;;
16967;SDS011;8600;54.338;10.128;2022-08-11T11:15:40;4.32;;;1.50;;
16967;SDS011;8600;54.338;10.128;2022-08-11T11:18:28;4.28;;;1.60;;
16967;SDS011;8600;54.338;10.128;2022-08-11T11:21:02;8.70;;;1.40;;
16967;SDS011;8600;54.338;10.128;2022-08-11T11:23:32;3.38;;;1.50;;
16967;SDS011;8600;54.338;10.128;2022-08-11T11:26:13;5.88;;;1.58;;
16967;SDS011;8600;54.338;10.128;2022-08-11T11:29:09;7.15;;;1.55;;
16967;SDS011;8600;54.338;10.128;2022-08-11T11:31:58;3.67;;;1.55;;
16967;SDS011;8600;54.338;10.128;2022-08-11T11:37:36;6.53;;;1.58;;
16967;SDS011;8600;54.338;10.128;2022-08-11T11:40:07;6.18;;;1.50;;
16967;SDS011;8600;54.338;10.128;2022-08-11T11:42:38;6.72;;;1.50;;
16967;SDS011;8600;54.338;10.128;2022-08-11T11:45:07;5.07;;;1.52;;
16967;SDS011;8600;54.338;10.128;2022-08-11T11:47:35;6.72;;;1.30;;
16967;SDS011;8600;54.338;10.128;2022-08-11T11:50:04;8.57;;;1.60;;
16967;SDS011;8600;54.338;10.128;2022-08-11T11:52:33;4.05;;;1.65;;
16967;SDS011;8600;54.338;10.128;2022-08-11T11:55:03;4.22;;;1.30;;
16967;SDS011;8600;54.338;10.128;2022-08-11T11:57:32;4.32;;;1.38;;
16967;SDS011;8600;54.338;10.128;2022-08-11T12:00:18;7.78;;;1.67;;
16967;SDS011;8600;54.338;10.128;2022-08-11T12:03:04;6.57;;;1.65;;
16967;SDS011;8600;54.338;10.128;2022-08-11T12:05:34;4.88;;;1.55;;
16967;SDS011;8600;54.338;10.128;2022-08-11T12:08:02;4.70;;;1.23;;
16967;SDS011;8600;54.338;10.128;2022-08-11T12:10:39;5.22;;;1.50;;
16967;SDS011;8600;54.338;10.128;2022-08-11T12:13:09;3.47;;;1.50;;
16967;SDS011;8600;54.338;10.128;2022-08-11T12:15:56;5.65;;;1.48;;
16967;SDS011;8600;54.338;10.128;2022-08-11T12:18:29;8.68;;;1.60;;
16967;SDS011;8600;54.338;10.128;2022-08-11T12:20:58;5.25;;;1.50;;
16967;SDS011;8600;54.338;10.128;2022-08-11T12:23:26;4.78;;;1.48;;
16967;SDS011;8600;54.338;10.128;2022-08-11T12:26:12;2.78;;;1.40;;
16967;SDS011;8600;54.338;10.128;2022-08-11T12:28:59;5.28;;;1.40;;
16967;SDS011;8600;54.338;10.128;2022-08-11T12:31:28;3.35;;;1.30;;
16967;SDS011;8600;54.338;10.128;2022-08-11T12:33:59;3.80;;;1.60;;
16967;SDS011;8600;54.338;10.128;2022-08-11T12:36:27;5.68;;;1.33;;
16967;SDS011;8600;54.338;10.128;2022-08-11T12:38:58;6.95;;;1.30;;
16967;SDS011;8600;54.338;10.128;2022-08-11T12:41:25;7.05;;;1.20;;
16967;SDS011;8600;54.338;10.128;2022-08-11T12:44:10;11.32;;;1.50;;
16967;SDS011;8600;54.338;10.128;2022-08-11T12:47:02;4.53;;;1.50;;
16967;SDS011;8600;54.338;10.128;2022-08-11T12:49:31;4.43;;;1.23;;
16967;SDS011;8600;54.338;10.128;2022-08-11T12:52:21;7.93;;;1.50;;
16967;SDS011;8600;54.338;10.128;2022-08-11T12:54:55;7.07;;;1.30;;
16967;SDS011;8600;54.338;10.128;2022-08-11T12:57:27;3.60;;;1.30;;
16967;SDS011;8600;54.338;10.128;2022-08-11T13:00:14;7.53;;;1.30;;
16967;SDS011;8600;54.338;10.128;2022-08-11T13:03:01;3.88;;;1.20;;
16967;SDS011;8600;54.338;10.128;2022-08-11T13:05:48;6.13;;;1.67;;
16967;SDS011;8600;54.338;10.128;2022-08-11T13:08:18;2.80;;;1.10;;
16967;SDS011;8600;54.338;10.128;2022-08-11T13:10:47;8.52;;;1.40;;
16967;SDS011;8600;54.338;10.128;2022-08-11T13:13:33;3.90;;;1.30;;
16967;SDS011;8600;54.338;10.128;2022-08-11T13:16:02;2.25;;;1.13;;
16967;SDS011;8600;54.338;10.128;2022-08-11T13:18:31;5.75;;;1.17;;
16967;SDS011;8600;54.338;10.128;2022-08-11T13:20:59;3.42;;;1.20;;
16967;SDS011;8600;54.338;10.128;2022-08-11T13:23:27;3.50;;;1.30;;
16967;SDS011;8600;54.338;10.128;2022-08-11T13:25:54;7.57;;;1.40;;
16967;SDS011;8600;54.338;10.128;2022-08-11T13:28:22;3.92;;;1.08;;
16967;SDS011;8600;54.338;10.128;2022-08-11T13:30:49;3.45;;;1.13;;
16967;SDS011;8600;54.338;10.128;2022-08-11T13:33:36;5.05;;;1.30;;
16967;SDS011;8600;54.338;10.128;2022-08-11T13:36:07;5.05;;;1.27;;
16967;SDS011;8600;54.338;10.128;2022-08-11T13:38:35;2.88;;;1.17;;
16967;SDS011;8600;54.338;10.128;2022-08-11T13:41:04;4.70;;;1.15;;
16967;SDS011;8600;54.338;10.128;2022-08-11T13:43:52;5.35;;;1.10;;
16967;SDS011;8600;54.338;10.128;2022-08-11T13:46:21;5.72;;;1.30;;
16967;SDS011;8600;54.338;10.128;2022-08-11T13:48:50;3.67;;;0.90;;
16967;SDS011;8600;54.338;10.128;2022-08-11T13:51:19;5.03;;;1.25;;
16967;SDS011;8600;54.338;10.128;2022-08-11T13:53:58;3.20;;;1.10;;
16967;SDS011;8600;54.338;10.128;2022-08-11T13:56:26;5.80;;;1.02;;
16967;SDS011;8600;54.338;10.128;2022-08-11T13:58:54;4.25;;;1.08;;
16967;SDS011;8600;54.338;10.128;2022-08-11T14:01:23;5.55;;;0.95;;
16967;SDS011;8600;54.338;10.128;2022-08-11T14:03:55;8.20;;;1.05;;
16967;SDS011;8600;54.338;10.128;2022-08-11T14:06:28;5.47;;;1.00;;
16967;SDS011;8600;54.338;10.128;2022-08-11T14:08:56;5.45;;;1.02;;
16967;SDS011;8600;54.338;10.128;2022-08-11T14:11:24;6.88;;;1.00;;
16967;SDS011;8600;54.338;10.128;2022-08-11T14:14:11;4.10;;;0.90;;
16967;SDS011;8600;54.338;10.128;2022-08-11T14:16:44;3.63;;;0.95;;
16967;SDS011;8600;54.338;10.128;2022-08-11T14:19:15;4.68;;;1.10;;
16967;SDS011;8600;54.338;10.128;2022-08-11T14:21:43;5.70;;;0.90;;
16967;SDS011;8600;54.338;10.128;2022-08-11T14:24:29;5.72;;;0.95;;
16967;SDS011;8600;54.338;10.128;2022-08-11T14:26:57;4.38;;;1.10;;
16967;SDS011;8600;54.338;10.128;2022-08-11T14:29:26;6.20;;;1.00;;
16967;SDS011;8600;54.338;10.128;2022-08-11T14:31:54;3.03;;;1.05;;
16967;SDS011;8600;54.338;10.128;2022-08-11T14:34:24;5.40;;;1.65;;
16967;SDS011;8600;54.338;10.128;2022-08-11T14:36:55;8.15;;;0.90;;
16967;SDS011;8600;54.338;10.128;2022-08-11T14:39:25;6.43;;;1.10;;
16967;SDS011;8600;54.338;10.128;2022-08-11T14:41:54;4.60;;;1.00;;
16967;SDS011;8600;54.338;10.128;2022-08-11T14:44:41;3.38;;;1.00;;
16967;SDS011;8600;54.338;10.128;2022-08-11T14:47:42;4.07;;;0.95;;
16967;SDS011;8600;54.338;10.128;2022-08-11T14:50:14;8.98;;;0.95;;
16967;SDS011;8600;54.338;10.128;2022-08-11T14:52:48;3.88;;;1.00;;
16967;SDS011;8600;54.338;10.128;2022-08-11T14:55:16;4.35;;;1.00;;
16967;SDS011;8600;54.338;10.128;2022-08-11T14:58:01;4.75;;;1.00;;
16967;SDS011;8600;54.338;10.128;2022-08-11T15:00:29;4.65;;;1.02;;
16967;SDS011;8600;54.338;10.128;2022-08-11T15:02:58;4.15;;;1.00;;
16967;SDS011;8600;54.338;10.128;2022-08-11T15:05:35;3.38;;;0.95;;
16967;SDS011;8600;54.338;10.128;2022-08-11T15:08:04;3.55;;;0.88;;
16967;SDS011;8600;54.338;10.128;2022-08-11T15:10:33;4.30;;;1.00;;
16967;SDS011;8600;54.338;10.128;2022-08-11T15:13:00;2.60;;;1.00;;
16967;SDS011;8600;54.338;10.128;2022-08-11T15:15:28;4.75;;;1.10;;
16967;SDS011;8600;54.338;10.128;2022-08-11T15:18:14;4.55;;;1.00;;
16967;SDS011;8600;54.338;10.128;2022-08-11T15:20:45;5.68;;;1.10;;
16967;SDS011;8600;54.338;10.128;2022-08-11T15:23:29;4.28;;;1.13;;
16967;SDS011;8600;54.338;10.128;2022-08-11T15:26:15;4.43;;;1.00;;
16967;SDS011;8600;54.338;10.128;2022-08-11T15:28:45;4.18;;;0.90;;
16967;SDS011;8600;54.338;10.128;2022-08-11T15:31:31;5.38;;;0.90;;
16967;SDS011;8600;54.338;10.128;2022-08-11T15:34:17;2.53;;;1.08;;
16967;SDS011;8600;54.338;10.128;2022-08-11T15:37:08;7.32;;;1.00;;
16967;SDS011;8600;54.338;10.128;2022-08-11T15:39:52;4.00;;;0.93;;
16967;SDS011;8600;54.338;10.128;2022-08-11T15:42:48;3.08;;;0.90;;
16967;SDS011;8600;54.338;10.128;2022-08-11T15:45:36;2.63;;;1.10;;
16967;SDS011;8600;54.338;10.128;2022-08-11T15:48:34;5.70;;;0.90;;
16967;SDS011;8600;54.338;10.128;2022-08-11T15:51:07;6.07;;;1.00;;
16967;SDS011;8600;54.338;10.128;2022-08-11T15:53:41;4.55;;;0.93;;
16967;SDS011;8600;54.338;10.128;2022-08-11T15:56:11;3.75;;;0.93;;
16967;SDS011;8600;54.338;10.128;2022-08-11T15:58:41;4.43;;;1.08;;
16967;SDS011;8600;54.338;10.128;2022-08-11T16:01:28;4.45;;;1.00;;
16967;SDS011;8600;54.338;10.128;2022-08-11T16:04:15;5.68;;;1.17;;
16967;SDS011;8600;54.338;10.128;2022-08-11T16:06:47;5.35;;;1.20;;
16967;SDS011;8600;54.338;10.128;2022-08-11T16:09:20;6.00;;;1.40;;
16967;SDS011;8600;54.338;10.128;2022-08-11T16:11:51;7.75;;;1.02;;
16967;SDS011;8600;54.338;10.128;2022-08-11T16:14:22;6.18;;;1.08;;
16967;SDS011;8600;54.338;10.128;2022-08-11T16:17:09;8.13;;;1.50;;
16967;SDS011;8600;54.338;10.128;2022-08-11T16:19:39;2.78;;;1.17;;
16967;SDS011;8600;54.338;10.128;2022-08-11T16:22:10;2.65;;;1.00;;
16967;SDS011;8600;54.338;10.128;2022-08-11T16:24:43;3.70;;;1.20;;
16967;SDS011;8600;54.338;10.128;2022-08-11T16:27:12;5.20;;;1.42;;
16967;SDS011;8600;54.338;10.128;2022-08-11T16:29:43;7.28;;;1.35;;
16967;SDS011;8600;54.338;10.128;2022-08-11T16:32:14;2.55;;;1.17;;
16967;SDS011;8600;54.338;10.128;2022-08-11T16:34:45;3.80;;;2.22;;
16967;SDS011;8600;54.338;10.128;2022-08-11T16:37:33;2.92;;;1.25;;
16967;SDS011;8600;54.338;10.128;2022-08-11T16:40:21;4.30;;;1.30;;
16967;SDS011;8600;54.338;10.128;2022-08-11T16:42:50;5.03;;;1.30;;
16967;SDS011;8600;54.338;10.128;2022-08-11T16:45:35;6.43;;;1.30;;
16967;SDS011;8600;54.338;10.128;2022-08-11T16:48:21;4.20;;;1.30;;
16967;SDS011;8600;54.338;10.128;2022-08-11T16:50:52;3.70;;;1.20;;
16967;SDS011;8600;54.338;10.128;2022-08-11T16:53:20;5.35;;;1.20;;
16967;SDS011;8600;54.338;10.128;2022-08-11T16:55:48;2.45;;;1.02;;
16967;SDS011;8600;54.338;10.128;2022-08-11T16:58:17;5.38;;;1.38;;
16967;SDS011;8600;54.338;10.128;2022-08-11T17:01:04;3.53;;;1.23;;
16967;SDS011;8600;54.338;10.128;2022-08-11T17:03:34;5.10;;;1.25;;
16967;SDS011;8600;54.338;10.128;2022-08-11T17:06:37;7.20;;;1.43;;
16967;SDS011;8600;54.338;10.128;2022-08-11T17:09:27;3.97;;;1.02;;